sensor_id;sensor_type;location;lat;lon;timestamp;P1;durP1;ratioP1;P2;durP2;ratioP2
28756;SDS011;44294;48.282;14.282;2022-09-25T00:02:28;17.90;;;13.20;;
28756;SDS011;44294;48.282;14.282;2022-09-25T00:05:15;17.90;;;13.17;;
28756;SDS011;44294;48.282;14.282;2022-09-25T00:08:03;21.97;;;13.80;;
28756;SDS011;44294;48.282;14.282;2022-09-25T00:10:51;17.67;;;13.67;;
28756;SDS011;44294;48.282;14.282;2022-09-25T00:13:39;19.67;;;14.23;;
28756;SDS011;44294;48.282;14.282;2022-09-25T00:16:27;19.03;;;13.60;;
28756;SDS011;44294;48.282;14.282;2022-09-25T00:19:20;19.63;;;13.67;;
28756;SDS011;44294;48.282;14.282;2022-09-25T00:22:23;20.53;;;14.53;;
28756;SDS011;44294;48.282;14.282;2022-09-25T00:25:14;19.73;;;14.00;;
28756;SDS011;44294;48.282;14.282;2022-09-25T00:28:02;20.73;;;14.50;;
28756;SDS011;44294;48.282;14.282;2022-09-25T00:33:29;20.90;;;14.40;;
28756;SDS011;44294;48.282;14.282;2022-09-25T00:36:17;18.07;;;14.00;;
28756;SDS011;44294;48.282;14.282;2022-09-25T00:39:04;18.47;;;13.97;;
28756;SDS011;44294;48.282;14.282;2022-09-25T00:41:52;23.03;;;15.63;;
28756;SDS011;44294;48.282;14.282;2022-09-25T00:50:26;19.37;;;14.60;;
28756;SDS011;44294;48.282;14.282;2022-09-25T00:53:17;19.50;;;14.07;;
28756;SDS011;44294;48.282;14.282;2022-09-25T00:56:04;20.23;;;14.07;;
28756;SDS011;44294;48.282;14.282;2022-09-25T00:58:53;19.77;;;13.63;;
28756;SDS011;44294;48.282;14.282;2022-09-25T01:01:40;17.03;;;13.20;;
28756;SDS011;44294;48.282;14.282;2022-09-25T01:04:28;19.53;;;14.13;;
28756;SDS011;44294;48.282;14.282;2022-09-25T01:07:17;17.77;;;14.03;;
28756;SDS011;44294;48.282;14.282;2022-09-25T01:10:05;17.43;;;13.40;;
28756;SDS011;44294;48.282;14.282;2022-09-25T01:12:53;19.83;;;14.20;;
28756;SDS011;44294;48.282;14.282;2022-09-25T01:18:43;18.23;;;14.60;;
28756;SDS011;44294;48.282;14.282;2022-09-25T01:21:35;23.30;;;14.20;;
28756;SDS011;44294;48.282;14.282;2022-09-25T01:24:39;19.20;;;14.20;;
28756;SDS011;44294;48.282;14.282;2022-09-25T01:30:17;18.63;;;14.17;;
28756;SDS011;44294;48.282;14.282;2022-09-25T01:33:09;21.20;;;14.93;;
28756;SDS011;44294;48.282;14.282;2022-09-25T01:38:56;22.03;;;14.60;;
28756;SDS011;44294;48.282;14.282;2022-09-25T01:41:43;18.50;;;14.40;;
28756;SDS011;44294;48.282;14.282;2022-09-25T01:44:33;19.43;;;14.40;;
28756;SDS011;44294;48.282;14.282;2022-09-25T01:47:23;20.37;;;14.63;;
28756;SDS011;44294;48.282;14.282;2022-09-25T01:50:15;19.33;;;14.50;;
28756;SDS011;44294;48.282;14.282;2022-09-25T01:53:03;19.70;;;13.43;;
28756;SDS011;44294;48.282;14.282;2022-09-25T01:55:53;20.97;;;14.60;;
28756;SDS011;44294;48.282;14.282;2022-09-25T01:58:41;18.37;;;14.17;;
28756;SDS011;44294;48.282;14.282;2022-09-25T02:01:30;16.97;;;13.43;;
28756;SDS011;44294;48.282;14.282;2022-09-25T02:04:22;20.97;;;13.87;;
28756;SDS011;44294;48.282;14.282;2022-09-25T02:07:10;18.70;;;14.37;;
28756;SDS011;44294;48.282;14.282;2022-09-25T02:10:00;19.73;;;13.83;;
28756;SDS011;44294;48.282;14.282;2022-09-25T02:12:48;20.10;;;14.30;;
28756;SDS011;44294;48.282;14.282;2022-09-25T02:15:37;18.20;;;14.10;;
28756;SDS011;44294;48.282;14.282;2022-09-25T02:18:25;17.60;;;13.27;;
28756;SDS011;44294;48.282;14.282;2022-09-25T02:21:41;20.03;;;13.73;;
28756;SDS011;44294;48.282;14.282;2022-09-25T02:24:28;17.33;;;13.27;;
28756;SDS011;44294;48.282;14.282;2022-09-25T02:27:15;18.17;;;13.23;;
28756;SDS011;44294;48.282;14.282;2022-09-25T02:30:06;17.17;;;13.07;;
28756;SDS011;44294;48.282;14.282;2022-09-25T02:32:53;17.70;;;12.97;;
28756;SDS011;44294;48.282;14.282;2022-09-25T02:35:42;17.77;;;13.53;;
28756;SDS011;44294;48.282;14.282;2022-09-25T02:38:29;17.87;;;13.13;;
28756;SDS011;44294;48.282;14.282;2022-09-25T02:53:25;19.87;;;14.20;;
28756;SDS011;44294;48.282;14.282;2022-09-25T02:56:10;18.60;;;13.37;;
28756;SDS011;44294;48.282;14.282;2022-09-25T02:58:58;19.47;;;13.90;;
28756;SDS011;44294;48.282;14.282;2022-09-25T03:01:45;19.80;;;13.80;;
28756;SDS011;44294;48.282;14.282;2022-09-25T03:04:33;19.40;;;14.37;;
28756;SDS011;44294;48.282;14.282;2022-09-25T03:07:23;18.70;;;14.43;;
28756;SDS011;44294;48.282;14.282;2022-09-25T03:10:10;18.10;;;14.30;;
28756;SDS011;44294;48.282;14.282;2022-09-25T03:13:11;18.90;;;14.00;;
28756;SDS011;44294;48.282;14.282;2022-09-25T03:15:53;19.60;;;14.90;;
28756;SDS011;44294;48.282;14.282;2022-09-25T03:18:37;19.57;;;15.10;;
28756;SDS011;44294;48.282;14.282;2022-09-25T03:21:24;18.60;;;14.70;;
28756;SDS011;44294;48.282;14.282;2022-09-25T03:24:11;19.77;;;14.40;;
28756;SDS011;44294;48.282;14.282;2022-09-25T03:27:00;21.97;;;15.47;;
28756;SDS011;44294;48.282;14.282;2022-09-25T03:29:48;21.40;;;16.03;;
28756;SDS011;44294;48.282;14.282;2022-09-25T03:32:35;22.03;;;15.30;;
28756;SDS011;44294;48.282;14.282;2022-09-25T03:35:24;19.40;;;15.00;;
28756;SDS011;44294;48.282;14.282;2022-09-25T03:38:12;22.63;;;15.43;;
28756;SDS011;44294;48.282;14.282;2022-09-25T03:40:59;21.07;;;14.70;;
28756;SDS011;44294;48.282;14.282;2022-09-25T03:43:47;21.80;;;16.07;;
28756;SDS011;44294;48.282;14.282;2022-09-25T03:46:37;19.60;;;14.93;;
28756;SDS011;44294;48.282;14.282;2022-09-25T03:49:24;20.77;;;15.50;;
28756;SDS011;44294;48.282;14.282;2022-09-25T03:52:11;20.17;;;15.17;;
28756;SDS011;44294;48.282;14.282;2022-09-25T03:54:59;21.33;;;15.63;;
28756;SDS011;44294;48.282;14.282;2022-09-25T03:57:46;22.57;;;16.00;;
28756;SDS011;44294;48.282;14.282;2022-09-25T04:00:34;23.00;;;15.37;;
28756;SDS011;44294;48.282;14.282;2022-09-25T04:03:22;19.70;;;14.50;;
28756;SDS011;44294;48.282;14.282;2022-09-25T04:06:10;20.63;;;15.00;;
28756;SDS011;44294;48.282;14.282;2022-09-25T04:08:57;20.73;;;15.93;;
28756;SDS011;44294;48.282;14.282;2022-09-25T04:11:44;22.90;;;15.20;;
28756;SDS011;44294;48.282;14.282;2022-09-25T04:14:32;21.47;;;15.03;;
28756;SDS011;44294;48.282;14.282;2022-09-25T04:17:19;23.77;;;15.57;;
28756;SDS011;44294;48.282;14.282;2022-09-25T04:20:07;22.77;;;15.13;;
28756;SDS011;44294;48.282;14.282;2022-09-25T04:22:55;19.53;;;15.03;;
28756;SDS011;44294;48.282;14.282;2022-09-25T04:25:42;22.17;;;15.50;;
28756;SDS011;44294;48.282;14.282;2022-09-25T04:28:31;21.30;;;15.73;;
28756;SDS011;44294;48.282;14.282;2022-09-25T04:31:18;20.00;;;15.40;;
28756;SDS011;44294;48.282;14.282;2022-09-25T04:34:06;22.33;;;16.13;;
28756;SDS011;44294;48.282;14.282;2022-09-25T04:36:53;20.37;;;15.33;;
28756;SDS011;44294;48.282;14.282;2022-09-25T04:39:40;19.67;;;14.97;;
28756;SDS011;44294;48.282;14.282;2022-09-25T04:42:27;20.20;;;15.33;;
28756;SDS011;44294;48.282;14.282;2022-09-25T04:45:15;21.27;;;15.07;;
28756;SDS011;44294;48.282;14.282;2022-09-25T04:48:02;20.03;;;14.93;;
28756;SDS011;44294;48.282;14.282;2022-09-25T04:50:50;21.53;;;16.17;;
28756;SDS011;44294;48.282;14.282;2022-09-25T04:53:38;21.50;;;15.10;;
28756;SDS011;44294;48.282;14.282;2022-09-25T04:56:25;20.83;;;15.23;;
28756;SDS011;44294;48.282;14.282;2022-09-25T04:59:13;21.23;;;14.50;;
28756;SDS011;44294;48.282;14.282;2022-09-25T05:02:03;21.90;;;15.80;;
28756;SDS011;44294;48.282;14.282;2022-09-25T05:04:50;19.13;;;15.10;;
28756;SDS011;44294;48.282;14.282;2022-09-25T05:07:38;20.63;;;15.00;;
28756;SDS011;44294;48.282;14.282;2022-09-25T05:10:26;20.47;;;15.43;;
28756;SDS011;44294;48.282;14.282;2022-09-25T05:13:14;20.03;;;14.40;;
28756;SDS011;44294;48.282;14.282;2022-09-25T05:16:01;17.83;;;14.47;;
28756;SDS011;44294;48.282;14.282;2022-09-25T05:18:48;22.60;;;14.40;;
28756;SDS011;44294;48.282;14.282;2022-09-25T05:21:36;21.47;;;14.87;;
28756;SDS011;44294;48.282;14.282;2022-09-25T05:24:23;19.97;;;15.50;;
28756;SDS011;44294;48.282;14.282;2022-09-25T05:27:10;21.37;;;15.17;;
28756;SDS011;44294;48.282;14.282;2022-09-25T05:29:58;19.20;;;15.10;;
28756;SDS011;44294;48.282;14.282;2022-09-25T05:32:46;19.50;;;14.90;;
28756;SDS011;44294;48.282;14.282;2022-09-25T05:35:34;19.43;;;14.60;;
28756;SDS011;44294;48.282;14.282;2022-09-25T05:38:22;18.37;;;14.67;;
28756;SDS011;44294;48.282;14.282;2022-09-25T05:41:09;19.77;;;15.03;;
28756;SDS011;44294;48.282;14.282;2022-09-25T05:43:56;20.73;;;15.73;;
28756;SDS011;44294;48.282;14.282;2022-09-25T05:46:44;20.20;;;15.57;;
28756;SDS011;44294;48.282;14.282;2022-09-25T05:49:31;20.93;;;16.00;;
28756;SDS011;44294;48.282;14.282;2022-09-25T05:52:18;21.67;;;15.90;;
28756;SDS011;44294;48.282;14.282;2022-09-25T05:55:06;25.73;;;16.93;;
28756;SDS011;44294;48.282;14.282;2022-09-25T05:57:58;24.60;;;17.97;;
28756;SDS011;44294;48.282;14.282;2022-09-25T06:00:42;21.97;;;16.57;;
28756;SDS011;44294;48.282;14.282;2022-09-25T06:03:30;21.17;;;16.43;;
28756;SDS011;44294;48.282;14.282;2022-09-25T06:06:18;21.90;;;16.03;;
28756;SDS011;44294;48.282;14.282;2022-09-25T06:09:05;19.83;;;16.13;;
28756;SDS011;44294;48.282;14.282;2022-09-25T06:11:52;24.80;;;17.23;;
28756;SDS011;44294;48.282;14.282;2022-09-25T06:14:40;27.17;;;17.60;;
28756;SDS011;44294;48.282;14.282;2022-09-25T06:17:27;25.27;;;18.80;;
28756;SDS011;44294;48.282;14.282;2022-09-25T06:20:14;25.07;;;18.23;;
28756;SDS011;44294;48.282;14.282;2022-09-25T06:23:02;22.13;;;17.50;;
28756;SDS011;44294;48.282;14.282;2022-09-25T06:25:49;23.40;;;17.57;;
28756;SDS011;44294;48.282;14.282;2022-09-25T06:28:36;24.67;;;17.73;;
28756;SDS011;44294;48.282;14.282;2022-09-25T06:31:24;27.53;;;19.50;;
28756;SDS011;44294;48.282;14.282;2022-09-25T06:34:11;24.73;;;17.83;;
28756;SDS011;44294;48.282;14.282;2022-09-25T06:36:59;25.57;;;18.03;;
28756;SDS011;44294;48.282;14.282;2022-09-25T06:39:46;25.43;;;18.07;;
28756;SDS011;44294;48.282;14.282;2022-09-25T06:42:34;24.17;;;18.83;;
28756;SDS011;44294;48.282;14.282;2022-09-25T06:45:21;24.03;;;18.50;;
28756;SDS011;44294;48.282;14.282;2022-09-25T06:48:10;23.67;;;17.33;;
28756;SDS011;44294;48.282;14.282;2022-09-25T06:50:58;24.47;;;18.53;;
28756;SDS011;44294;48.282;14.282;2022-09-25T06:53:46;26.37;;;19.37;;
28756;SDS011;44294;48.282;14.282;2022-09-25T06:56:33;26.53;;;19.57;;
28756;SDS011;44294;48.282;14.282;2022-09-25T06:59:21;27.37;;;19.13;;
28756;SDS011;44294;48.282;14.282;2022-09-25T07:02:10;27.00;;;19.70;;
28756;SDS011;44294;48.282;14.282;2022-09-25T07:05:15;25.27;;;19.53;;
28756;SDS011;44294;48.282;14.282;2022-09-25T07:08:04;28.07;;;20.83;;
28756;SDS011;44294;48.282;14.282;2022-09-25T07:10:52;27.00;;;20.80;;
28756;SDS011;44294;48.282;14.282;2022-09-25T07:13:41;30.67;;;22.53;;
28756;SDS011;44294;48.282;14.282;2022-09-25T07:16:28;29.90;;;21.87;;
28756;SDS011;44294;48.282;14.282;2022-09-25T07:19:17;27.17;;;19.43;;
28756;SDS011;44294;48.282;14.282;2022-09-25T07:22:05;26.50;;;19.43;;
28756;SDS011;44294;48.282;14.282;2022-09-25T07:24:52;25.13;;;19.40;;
28756;SDS011;44294;48.282;14.282;2022-09-25T07:27:39;25.13;;;19.50;;
28756;SDS011;44294;48.282;14.282;2022-09-25T07:30:27;27.33;;;19.70;;
28756;SDS011;44294;48.282;14.282;2022-09-25T07:33:15;25.97;;;18.77;;
28756;SDS011;44294;48.282;14.282;2022-09-25T07:36:02;22.47;;;17.83;;
28756;SDS011;44294;48.282;14.282;2022-09-25T07:38:50;22.33;;;17.23;;
28756;SDS011;44294;48.282;14.282;2022-09-25T07:41:37;24.00;;;17.67;;
28756;SDS011;44294;48.282;14.282;2022-09-25T07:44:25;24.27;;;18.00;;
28756;SDS011;44294;48.282;14.282;2022-09-25T07:47:12;24.40;;;17.27;;
28756;SDS011;44294;48.282;14.282;2022-09-25T07:50:00;24.57;;;18.17;;
28756;SDS011;44294;48.282;14.282;2022-09-25T07:52:47;25.43;;;18.40;;
28756;SDS011;44294;48.282;14.282;2022-09-25T07:55:35;22.80;;;16.63;;
28756;SDS011;44294;48.282;14.282;2022-09-25T07:58:22;20.97;;;16.90;;
28756;SDS011;44294;48.282;14.282;2022-09-25T08:01:11;22.47;;;16.77;;
28756;SDS011;44294;48.282;14.282;2022-09-25T08:03:59;19.47;;;15.53;;
28756;SDS011;44294;48.282;14.282;2022-09-25T08:06:46;20.77;;;15.77;;
28756;SDS011;44294;48.282;14.282;2022-09-25T08:09:33;21.50;;;17.37;;
28756;SDS011;44294;48.282;14.282;2022-09-25T08:12:21;25.37;;;19.07;;
28756;SDS011;44294;48.282;14.282;2022-09-25T08:15:10;23.90;;;17.07;;
28756;SDS011;44294;48.282;14.282;2022-09-25T08:17:59;23.43;;;16.57;;
28756;SDS011;44294;48.282;14.282;2022-09-25T08:20:46;21.73;;;16.37;;
28756;SDS011;44294;48.282;14.282;2022-09-25T08:23:33;21.93;;;16.07;;
28756;SDS011;44294;48.282;14.282;2022-09-25T08:26:21;24.13;;;15.67;;
28756;SDS011;44294;48.282;14.282;2022-09-25T08:29:08;19.07;;;14.50;;
28756;SDS011;44294;48.282;14.282;2022-09-25T08:31:56;18.63;;;14.70;;
28756;SDS011;44294;48.282;14.282;2022-09-25T08:34:43;19.77;;;15.33;;
28756;SDS011;44294;48.282;14.282;2022-09-25T08:37:31;20.03;;;14.90;;
28756;SDS011;44294;48.282;14.282;2022-09-25T08:40:19;17.23;;;14.07;;
28756;SDS011;44294;48.282;14.282;2022-09-25T08:43:08;15.20;;;12.80;;
28756;SDS011;44294;48.282;14.282;2022-09-25T08:45:55;17.13;;;12.97;;
28756;SDS011;44294;48.282;14.282;2022-09-25T08:49:02;17.43;;;13.23;;
28756;SDS011;44294;48.282;14.282;2022-09-25T08:51:53;69.20;;;50.57;;
28756;SDS011;44294;48.282;14.282;2022-09-25T08:54:43;18.73;;;15.03;;
28756;SDS011;44294;48.282;14.282;2022-09-25T08:57:31;18.43;;;14.07;;
28756;SDS011;44294;48.282;14.282;2022-09-25T09:00:22;17.60;;;13.00;;
28756;SDS011;44294;48.282;14.282;2022-09-25T09:03:09;16.57;;;12.67;;
28756;SDS011;44294;48.282;14.282;2022-09-25T09:06:01;17.47;;;13.07;;
28756;SDS011;44294;48.282;14.282;2022-09-25T09:08:52;14.60;;;12.07;;
28756;SDS011;44294;48.282;14.282;2022-09-25T09:11:51;16.17;;;12.40;;
28756;SDS011;44294;48.282;14.282;2022-09-25T09:14:46;17.43;;;13.30;;
28756;SDS011;44294;48.282;14.282;2022-09-25T09:17:38;16.83;;;12.83;;
28756;SDS011;44294;48.282;14.282;2022-09-25T09:20:23;29.90;;;21.23;;
28756;SDS011;44294;48.282;14.282;2022-09-25T09:23:12;25.53;;;18.53;;
28756;SDS011;44294;48.282;14.282;2022-09-25T09:26:03;22.80;;;15.20;;
28756;SDS011;44294;48.282;14.282;2022-09-25T09:37:53;20.17;;;13.10;;
28756;SDS011;44294;48.282;14.282;2022-09-25T09:49:46;26.50;;;17.40;;
28756;SDS011;44294;48.282;14.282;2022-09-25T09:52:36;16.93;;;13.00;;
28756;SDS011;44294;48.282;14.282;2022-09-25T09:55:32;17.87;;;11.93;;
28756;SDS011;44294;48.282;14.282;2022-09-25T09:58:20;14.63;;;11.47;;
28756;SDS011;44294;48.282;14.282;2022-09-25T10:01:07;13.30;;;10.73;;
28756;SDS011;44294;48.282;14.282;2022-09-25T10:04:02;16.27;;;11.70;;
28756;SDS011;44294;48.282;14.282;2022-09-25T10:09:50;15.87;;;11.17;;
28756;SDS011;44294;48.282;14.282;2022-09-25T10:12:41;12.67;;;10.30;;
28756;SDS011;44294;48.282;14.282;2022-09-25T10:18:17;13.97;;;11.00;;
28756;SDS011;44294;48.282;14.282;2022-09-25T10:21:10;16.73;;;11.43;;
28756;SDS011;44294;48.282;14.282;2022-09-25T10:23:58;16.23;;;11.77;;
28756;SDS011;44294;48.282;14.282;2022-09-25T10:26:47;13.13;;;10.40;;
28756;SDS011;44294;48.282;14.282;2022-09-25T10:29:35;14.93;;;11.67;;
28756;SDS011;44294;48.282;14.282;2022-09-25T10:32:22;15.40;;;11.40;;
28756;SDS011;44294;48.282;14.282;2022-09-25T10:35:13;16.10;;;11.70;;
28756;SDS011;44294;48.282;14.282;2022-09-25T10:38:01;13.07;;;10.77;;
28756;SDS011;44294;48.282;14.282;2022-09-25T10:43:57;18.57;;;11.07;;
28756;SDS011;44294;48.282;14.282;2022-09-25T10:46:46;15.67;;;10.53;;
28756;SDS011;44294;48.282;14.282;2022-09-25T10:49:51;12.40;;;10.03;;
28756;SDS011;44294;48.282;14.282;2022-09-25T10:52:57;12.27;;;9.13;;
28756;SDS011;44294;48.282;14.282;2022-09-25T10:55:45;12.00;;;8.60;;
28756;SDS011;44294;48.282;14.282;2022-09-25T10:58:37;12.10;;;9.53;;
28756;SDS011;44294;48.282;14.282;2022-09-25T11:01:34;12.83;;;8.40;;
28756;SDS011;44294;48.282;14.282;2022-09-25T11:04:30;12.30;;;9.27;;
28756;SDS011;44294;48.282;14.282;2022-09-25T11:07:15;12.83;;;8.67;;
28756;SDS011;44294;48.282;14.282;2022-09-25T11:10:05;18.47;;;12.60;;
28756;SDS011;44294;48.282;14.282;2022-09-25T11:12:53;17.07;;;11.60;;
28756;SDS011;44294;48.282;14.282;2022-09-25T11:15:41;16.73;;;10.70;;
28756;SDS011;44294;48.282;14.282;2022-09-25T11:21:21;12.77;;;8.33;;
28756;SDS011;44294;48.282;14.282;2022-09-25T11:30:07;14.67;;;9.33;;
28756;SDS011;44294;48.282;14.282;2022-09-25T11:38:39;12.83;;;8.80;;
28756;SDS011;44294;48.282;14.282;2022-09-25T11:41:46;12.93;;;8.57;;
28756;SDS011;44294;48.282;14.282;2022-09-25T11:44:39;14.00;;;9.00;;
28756;SDS011;44294;48.282;14.282;2022-09-25T11:47:24;15.27;;;10.90;;
28756;SDS011;44294;48.282;14.282;2022-09-25T11:50:13;12.80;;;9.70;;
28756;SDS011;44294;48.282;14.282;2022-09-25T11:53:17;16.83;;;11.00;;
28756;SDS011;44294;48.282;14.282;2022-09-25T11:56:13;16.67;;;11.30;;
28756;SDS011;44294;48.282;14.282;2022-09-25T12:08:17;13.87;;;8.57;;
28756;SDS011;44294;48.282;14.282;2022-09-25T12:14:09;11.03;;;7.57;;
28756;SDS011;44294;48.282;14.282;2022-09-25T12:23:01;14.50;;;9.80;;
28756;SDS011;44294;48.282;14.282;2022-09-25T12:25:54;14.83;;;11.20;;
28756;SDS011;44294;48.282;14.282;2022-09-25T12:31:55;11.83;;;8.53;;
28756;SDS011;44294;48.282;14.282;2022-09-25T12:37:45;10.40;;;7.70;;
28756;SDS011;44294;48.282;14.282;2022-09-25T12:40:35;9.73;;;7.90;;
28756;SDS011;44294;48.282;14.282;2022-09-25T12:46:19;12.00;;;9.77;;
28756;SDS011;44294;48.282;14.282;2022-09-25T12:49:12;16.00;;;13.13;;
28756;SDS011;44294;48.282;14.282;2022-09-25T12:52:14;10.53;;;8.60;;
28756;SDS011;44294;48.282;14.282;2022-09-25T13:00:42;8.10;;;6.70;;
28756;SDS011;44294;48.282;14.282;2022-09-25T13:06:42;11.57;;;8.43;;
28756;SDS011;44294;48.282;14.282;2022-09-25T13:12:09;12.53;;;7.60;;
28756;SDS011;44294;48.282;14.282;2022-09-25T13:14:58;10.47;;;7.60;;
28756;SDS011;44294;48.282;14.282;2022-09-25T13:17:46;15.17;;;11.23;;
28756;SDS011;44294;48.282;14.282;2022-09-25T13:23:35;10.70;;;8.13;;
28756;SDS011;44294;48.282;14.282;2022-09-25T13:26:22;10.47;;;8.70;;
28756;SDS011;44294;48.282;14.282;2022-09-25T13:29:26;10.27;;;8.10;;
28756;SDS011;44294;48.282;14.282;2022-09-25T13:32:14;10.40;;;8.13;;
28756;SDS011;44294;48.282;14.282;2022-09-25T13:35:03;9.40;;;8.40;;
28756;SDS011;44294;48.282;14.282;2022-09-25T13:38:08;11.13;;;9.23;;
28756;SDS011;44294;48.282;14.282;2022-09-25T13:40:40;11.20;;;9.23;;
28756;SDS011;44294;48.282;14.282;2022-09-25T13:43:31;9.73;;;8.43;;
28756;SDS011;44294;48.282;14.282;2022-09-25T13:49:33;9.93;;;7.30;;
28756;SDS011;44294;48.282;14.282;2022-09-25T13:52:00;8.77;;;7.20;;
28756;SDS011;44294;48.282;14.282;2022-09-25T13:54:47;10.90;;;8.70;;
28756;SDS011;44294;48.282;14.282;2022-09-25T14:03:38;11.77;;;8.50;;
28756;SDS011;44294;48.282;14.282;2022-09-25T14:06:28;12.47;;;8.87;;
28756;SDS011;44294;48.282;14.282;2022-09-25T14:09:23;11.10;;;7.90;;
28756;SDS011;44294;48.282;14.282;2022-09-25T14:12:20;12.00;;;8.93;;
28756;SDS011;44294;48.282;14.282;2022-09-25T14:15:05;11.27;;;8.30;;
28756;SDS011;44294;48.282;14.282;2022-09-25T14:17:54;10.10;;;8.40;;
28756;SDS011;44294;48.282;14.282;2022-09-25T14:20:43;11.43;;;9.47;;
28756;SDS011;44294;48.282;14.282;2022-09-25T14:23:31;10.10;;;8.43;;
28756;SDS011;44294;48.282;14.282;2022-09-25T14:26:19;12.80;;;8.93;;
28756;SDS011;44294;48.282;14.282;2022-09-25T14:29:13;10.03;;;7.40;;
28756;SDS011;44294;48.282;14.282;2022-09-25T14:35:19;10.00;;;7.57;;
28756;SDS011;44294;48.282;14.282;2022-09-25T14:38:07;9.77;;;7.33;;
28756;SDS011;44294;48.282;14.282;2022-09-25T14:40:59;9.07;;;7.40;;
28756;SDS011;44294;48.282;14.282;2022-09-25T14:46:33;9.67;;;7.13;;
28756;SDS011;44294;48.282;14.282;2022-09-25T14:49:27;10.57;;;8.10;;
28756;SDS011;44294;48.282;14.282;2022-09-25T14:52:22;8.20;;;7.17;;
28756;SDS011;44294;48.282;14.282;2022-09-25T14:55:14;13.97;;;9.80;;
28756;SDS011;44294;48.282;14.282;2022-09-25T14:57:59;9.63;;;6.83;;
28756;SDS011;44294;48.282;14.282;2022-09-25T15:00:56;8.17;;;6.53;;
28756;SDS011;44294;48.282;14.282;2022-09-25T15:03:45;11.43;;;8.47;;
28756;SDS011;44294;48.282;14.282;2022-09-25T15:06:35;9.70;;;7.10;;
28756;SDS011;44294;48.282;14.282;2022-09-25T15:09:40;7.80;;;6.50;;
28756;SDS011;44294;48.282;14.282;2022-09-25T15:12:31;8.73;;;6.70;;
28756;SDS011;44294;48.282;14.282;2022-09-25T15:15:21;8.57;;;6.93;;
28756;SDS011;44294;48.282;14.282;2022-09-25T15:18:11;7.97;;;6.43;;
28756;SDS011;44294;48.282;14.282;2022-09-25T15:20:57;7.60;;;6.80;;
28756;SDS011;44294;48.282;14.282;2022-09-25T15:23:46;8.20;;;6.30;;
28756;SDS011;44294;48.282;14.282;2022-09-25T15:26:36;9.23;;;6.57;;
28756;SDS011;44294;48.282;14.282;2022-09-25T15:29:24;7.37;;;6.10;;
28756;SDS011;44294;48.282;14.282;2022-09-25T15:32:20;8.27;;;6.23;;
28756;SDS011;44294;48.282;14.282;2022-09-25T15:35:17;8.80;;;6.23;;
28756;SDS011;44294;48.282;14.282;2022-09-25T15:38:17;9.00;;;6.50;;
28756;SDS011;44294;48.282;14.282;2022-09-25T15:40:53;7.57;;;6.37;;
28756;SDS011;44294;48.282;14.282;2022-09-25T15:43:34;7.63;;;6.20;;
28756;SDS011;44294;48.282;14.282;2022-09-25T15:46:26;8.40;;;6.07;;
28756;SDS011;44294;48.282;14.282;2022-09-25T15:49:14;8.33;;;6.63;;
28756;SDS011;44294;48.282;14.282;2022-09-25T15:52:02;6.80;;;6.07;;
28756;SDS011;44294;48.282;14.282;2022-09-25T15:54:50;8.30;;;6.07;;
28756;SDS011;44294;48.282;14.282;2022-09-25T15:57:38;10.80;;;6.50;;
28756;SDS011;44294;48.282;14.282;2022-09-25T16:00:25;8.87;;;6.70;;
28756;SDS011;44294;48.282;14.282;2022-09-25T16:03:31;9.43;;;6.53;;
28756;SDS011;44294;48.282;14.282;2022-09-25T16:06:42;9.73;;;6.73;;
28756;SDS011;44294;48.282;14.282;2022-09-25T16:09:33;7.57;;;6.37;;
28756;SDS011;44294;48.282;14.282;2022-09-25T16:12:22;10.47;;;6.90;;
28756;SDS011;44294;48.282;14.282;2022-09-25T16:18:23;9.27;;;7.40;;
28756;SDS011;44294;48.282;14.282;2022-09-25T16:21:18;10.77;;;7.30;;
28756;SDS011;44294;48.282;14.282;2022-09-25T16:24:06;9.93;;;7.27;;
28756;SDS011;44294;48.282;14.282;2022-09-25T16:26:56;10.87;;;7.23;;
28756;SDS011;44294;48.282;14.282;2022-09-25T16:29:44;9.37;;;7.00;;
28756;SDS011;44294;48.282;14.282;2022-09-25T16:32:31;9.63;;;6.97;;
28756;SDS011;44294;48.282;14.282;2022-09-25T16:35:26;10.17;;;6.93;;
28756;SDS011;44294;48.282;14.282;2022-09-25T16:41:06;9.63;;;7.00;;
28756;SDS011;44294;48.282;14.282;2022-09-25T16:44:05;11.80;;;7.60;;
28756;SDS011;44294;48.282;14.282;2022-09-25T16:49:48;8.63;;;7.43;;
28756;SDS011;44294;48.282;14.282;2022-09-25T16:52:35;8.53;;;7.13;;
28756;SDS011;44294;48.282;14.282;2022-09-25T16:55:25;10.10;;;7.27;;
28756;SDS011;44294;48.282;14.282;2022-09-25T16:58:14;10.07;;;7.43;;
28756;SDS011;44294;48.282;14.282;2022-09-25T17:01:01;9.37;;;7.00;;
28756;SDS011;44294;48.282;14.282;2022-09-25T17:03:50;10.67;;;7.07;;
28756;SDS011;44294;48.282;14.282;2022-09-25T17:06:38;15.23;;;8.00;;
28756;SDS011;44294;48.282;14.282;2022-09-25T17:09:27;12.27;;;8.23;;
28756;SDS011;44294;48.282;14.282;2022-09-25T17:12:21;10.50;;;7.80;;
28756;SDS011;44294;48.282;14.282;2022-09-25T17:15:06;13.57;;;8.80;;
28756;SDS011;44294;48.282;14.282;2022-09-25T17:17:53;11.43;;;8.63;;
28756;SDS011;44294;48.282;14.282;2022-09-25T17:20:41;11.37;;;8.97;;
28756;SDS011;44294;48.282;14.282;2022-09-25T17:23:28;15.03;;;8.57;;
28756;SDS011;44294;48.282;14.282;2022-09-25T17:26:22;13.17;;;8.80;;
28756;SDS011;44294;48.282;14.282;2022-09-25T17:29:10;13.67;;;8.83;;
28756;SDS011;44294;48.282;14.282;2022-09-25T17:31:58;13.07;;;9.00;;
28756;SDS011;44294;48.282;14.282;2022-09-25T17:34:45;10.63;;;8.80;;
28756;SDS011;44294;48.282;14.282;2022-09-25T17:37:32;12.00;;;9.07;;
28756;SDS011;44294;48.282;14.282;2022-09-25T17:40:20;14.20;;;9.60;;
28756;SDS011;44294;48.282;14.282;2022-09-25T17:43:10;12.83;;;10.10;;
28756;SDS011;44294;48.282;14.282;2022-09-25T17:45:59;13.60;;;10.83;;
28756;SDS011;44294;48.282;14.282;2022-09-25T17:48:46;15.37;;;10.90;;
28756;SDS011;44294;48.282;14.282;2022-09-25T17:51:34;17.80;;;11.53;;
28756;SDS011;44294;48.282;14.282;2022-09-25T17:54:21;14.17;;;11.70;;
28756;SDS011;44294;48.282;14.282;2022-09-25T17:57:09;14.37;;;11.37;;
28756;SDS011;44294;48.282;14.282;2022-09-25T17:59:56;17.10;;;11.47;;
28756;SDS011;44294;48.282;14.282;2022-09-25T18:02:44;14.87;;;12.10;;
28756;SDS011;44294;48.282;14.282;2022-09-25T18:05:31;14.17;;;11.80;;
28756;SDS011;44294;48.282;14.282;2022-09-25T18:08:18;17.43;;;12.63;;
28756;SDS011;44294;48.282;14.282;2022-09-25T18:11:08;15.93;;;12.70;;
28756;SDS011;44294;48.282;14.282;2022-09-25T18:13:55;15.03;;;12.77;;
28756;SDS011;44294;48.282;14.282;2022-09-25T18:16:44;19.27;;;13.93;;
28756;SDS011;44294;48.282;14.282;2022-09-25T18:19:31;19.83;;;14.07;;
28756;SDS011;44294;48.282;14.282;2022-09-25T18:22:37;19.27;;;15.17;;
28756;SDS011;44294;48.282;14.282;2022-09-25T18:25:24;21.30;;;16.63;;
28756;SDS011;44294;48.282;14.282;2022-09-25T18:28:11;23.07;;;17.77;;
28756;SDS011;44294;48.282;14.282;2022-09-25T18:31:00;19.67;;;16.10;;
28756;SDS011;44294;48.282;14.282;2022-09-25T18:33:47;20.23;;;17.27;;
28756;SDS011;44294;48.282;14.282;2022-09-25T18:36:36;25.67;;;18.80;;
28756;SDS011;44294;48.282;14.282;2022-09-25T18:39:23;24.97;;;18.03;;